Elsie, Michigan
Current Conditions -  °F | °C
As of 2:15 AM on Friday 19 Dec 2014 (Local Time) from KRNP Reporting Station
Overcast Overcast  
Wind Chill: -8°   Ceiling: 1600
Heat Index: -4°   Visibility: 10mi
Dew Point: -5°   Wind: 7mph
Humidity: 92%   Direction: 20°NNE
Pressure: 30.21"   Gusts: NA
Location:  43.09°N, 84.39°W
Report Text: KRNP 190715Z AUTO 02006KT 10SM OVC016 M04/M05 A3021 RMK AO2 T10361047
Loading
Personal Weather Stations






























Interactive Weather Map New forecast layout! Learn more

10-Day Weather Forecast

Advertisements
Track Severe Weather on mobile